createdAt,value
2023-03-13T00:02:22.531Z,-23707.52
2023-03-13T00:08:15.669Z,-23707.33
2023-03-13T00:10:45.449Z,-23706.10
2023-03-13T00:13:14.739Z,-23705.97
2023-03-13T00:15:45.905Z,-23705.94
2023-03-13T00:18:14.514Z,-23705.82
2023-03-13T00:20:42.742Z,-23705.44
2023-03-13T00:23:16.797Z,-23705.50
2023-03-13T00:25:45.803Z,-23705.50
2023-03-13T00:28:14.106Z,-23705.34
2023-03-13T00:30:46.042Z,-23705.50
2023-03-13T00:33:14.321Z,-23705.41
2023-03-13T00:35:42.981Z,-23705.44
2023-03-13T00:38:11.368Z,-23705.44
2023-03-13T00:40:40.066Z,-23705.59
2023-03-13T00:43:09.276Z,-23705.69
2023-03-13T00:45:37.836Z,-23705.78
2023-03-13T00:48:06.441Z,-23706.13
2023-03-13T00:50:36.064Z,-23706.00
2023-03-13T00:53:04.419Z,-23706.19
2023-03-13T00:55:32.785Z,-23706.48
2023-03-13T00:58:01.622Z,-23706.57
2023-03-13T01:00:30.051Z,-23706.73
2023-03-13T01:03:00.413Z,-23707.14
2023-03-13T01:05:28.810Z,-23707.36
2023-03-13T01:07:57.104Z,-23707.33
2023-03-13T01:10:27.155Z,-23707.30
2023-03-13T01:12:56.645Z,-23706.95
2023-03-13T01:15:26.280Z,-23706.89
2023-03-13T01:17:55.277Z,-23706.73
2023-03-13T01:20:26.182Z,-23706.57
2023-03-13T01:22:54.877Z,-23706.45
2023-03-13T01:25:24.962Z,-23706.80
2023-03-13T01:27:54.887Z,-23706.67
2023-03-13T01:30:23.707Z,-23706.42
2023-03-13T01:32:55.132Z,-23706.57
2023-03-13T01:35:26.898Z,-23706.57
2023-03-13T01:37:56.850Z,-23706.51
2023-03-13T01:40:25.066Z,-23706.57
2023-03-13T01:42:58.888Z,-23706.57
2023-03-13T01:45:52.878Z,-23706.29
2023-03-13T01:48:34.815Z,-23706.16
2023-03-13T01:51:06.788Z,-23706.13
2023-03-13T01:53:35.667Z,-23705.44
2023-03-13T01:56:06.232Z,-23705.06
2023-03-13T01:58:36.015Z,-23704.84
2023-03-13T02:01:04.361Z,-23704.08
2023-03-13T02:03:39.863Z,-23703.45
2023-03-13T02:06:08.663Z,-23703.07
2023-03-13T02:08:50.926Z,-23702.88
2023-03-13T02:12:01.472Z,-23702.41
2023-03-13T02:14:31.045Z,-23702.00
2023-03-13T02:16:59.768Z,-23701.55
2023-03-13T02:19:46.072Z,-23701.11
2023-03-13T02:22:14.735Z,-23700.83
2023-03-13T02:25:14.415Z,-23700.83
2023-03-13T02:27:43.310Z,-23700.29
2023-03-13T02:30:13.710Z,-23699.57
2023-03-13T02:32:43.079Z,-23699.19
2023-03-13T02:35:19.005Z,-23698.75
2023-03-13T02:37:53.734Z,-23698.55
2023-03-13T02:40:24.870Z,-23698.21
2023-03-13T02:42:58.741Z,-23697.77
2023-03-13T02:45:28.307Z,-23697.92
2023-03-13T02:47:56.612Z,-23697.92
2023-03-13T02:50:25.764Z,-23697.51
2023-03-13T02:53:00.471Z,-23697.26
2023-03-13T02:55:35.899Z,-23696.98
2023-03-13T02:58:04.708Z,-23696.76
2023-03-13T03:00:36.734Z,-23696.28
2023-03-13T03:03:05.241Z,-23696.03
2023-03-13T03:05:33.766Z,-23695.78
2023-03-13T03:08:02.532Z,-23695.74
2023-03-13T03:10:31.124Z,-23695.49
2023-03-13T03:13:00.996Z,-23695.65
2023-03-13T03:15:29.734Z,-23695.46
2023-03-13T03:17:58.547Z,-23695.59
2023-03-13T03:20:26.792Z,-23695.68
2023-03-13T03:22:55.120Z,-23695.68
2023-03-13T03:25:25.190Z,-23695.46
2023-03-13T03:27:55.125Z,-23695.14
2023-03-13T03:30:23.708Z,-23695.14
2023-03-13T03:32:53.049Z,-23695.08
2023-03-13T03:35:22.419Z,-23695.05
2023-03-13T03:37:51.630Z,-23695.14
2023-03-13T03:40:21.593Z,-23695.11
2023-03-13T03:42:52.767Z,-23695.08
2023-03-13T03:45:41.084Z,-23695.02
2023-03-13T03:48:10.568Z,-23694.86
2023-03-13T03:50:39.076Z,-23694.64
2023-03-13T03:53:13.902Z,-23694.39
2023-03-13T03:55:42.468Z,-23694.20
2023-03-13T03:58:10.805Z,-23694.13
2023-03-13T04:01:01.714Z,-23693.82
2023-03-13T04:03:30.573Z,-23693.82
2023-03-13T04:05:59.103Z,-23693.57
2023-03-13T04:08:27.688Z,-23693.38
2023-03-13T04:10:57.183Z,-23693.06
2023-03-13T04:13:29.171Z,-23692.77
2023-03-13T04:16:06.278Z,-23692.33
2023-03-13T04:18:38.285Z,-23691.93
2023-03-13T04:21:06.939Z,-23691.32
2023-03-13T04:23:51.604Z,-23690.79
2023-03-13T04:26:20.159Z,-23690.13
2023-03-13T04:28:51.088Z,-23689.52
2023-03-13T04:31:24.871Z,-23689.23
2023-03-13T04:34:09.495Z,-23689.11
2023-03-13T04:37:02.095Z,-23688.83
2023-03-13T04:39:54.123Z,-23688.51
2023-03-13T04:42:42.846Z,-23688.61
2023-03-13T04:45:34.215Z,-23689.14
2023-03-13T04:48:32.761Z,-23689.49
2023-03-13T04:51:33.932Z,-23690.09
2023-03-13T04:54:26.094Z,-23690.94
2023-03-13T04:57:27.011Z,-23691.83
2023-03-13T05:00:32.396Z,-23692.49
2023-03-13T05:03:16.334Z,-23693.35
2023-03-13T05:05:55.267Z,-23694.29
2023-03-13T05:08:46.982Z,-23695.49
2023-03-13T05:11:21.525Z,-23696.50
2023-03-13T05:14:20.029Z,-23697.51
2023-03-13T05:16:58.463Z,-23698.43
2023-03-13T05:19:32.532Z,-23699.50
2023-03-13T05:22:19.258Z,-23700.57
2023-03-13T05:25:07.781Z,-23701.59
2023-03-13T05:27:56.259Z,-23702.47
2023-03-13T05:30:45.222Z,-23703.07
2023-03-13T05:33:47.676Z,-23703.55
2023-03-13T05:36:41.386Z,-23703.95
2023-03-13T05:39:41.132Z,-23704.75
2023-03-13T05:42:47.536Z,-23705.72
2023-03-13T05:45:32.605Z,-23707.20
2023-03-13T05:48:16.217Z,-23708.56
2023-03-13T05:51:05.352Z,-23710.39
2023-03-13T05:53:52.059Z,-23711.97
2023-03-13T05:56:40.299Z,-23713.80
2023-03-13T05:59:27.283Z,-23716.08
2023-03-13T06:02:13.895Z,-23718.44
2023-03-13T06:04:44.086Z,-23720.87
2023-03-13T06:07:12.765Z,-23723.33
2023-03-13T06:09:43.339Z,-23726.20
2023-03-13T06:12:12.376Z,-23729.36
2023-03-13T06:14:40.795Z,-23732.64
2023-03-13T06:17:27.912Z,-23735.92
2023-03-13T06:19:56.805Z,-23738.76
2023-03-13T06:22:25.863Z,-23741.54
2023-03-13T06:24:54.674Z,-23744.24
2023-03-13T06:27:22.971Z,-23746.93
2023-03-13T06:29:53.073Z,-23750.05
2023-03-13T06:32:21.650Z,-23752.92
2023-03-13T06:34:54.435Z,-23755.88
2023-03-13T06:37:23.591Z,-23758.75
2023-03-13T06:39:51.717Z,-23761.36
2023-03-13T06:42:20.141Z,-23763.92
2023-03-13T06:44:48.366Z,-23766.34
2023-03-13T06:47:16.655Z,-23768.64
2023-03-13T06:49:45.959Z,-23771.04
2023-03-13T06:52:20.279Z,-23773.65
2023-03-13T06:54:48.771Z,-23776.21
2023-03-13T06:57:16.931Z,-23778.76
2023-03-13T06:59:45.161Z,-23780.99
2023-03-13T07:02:13.310Z,-23783.17
2023-03-13T07:04:46.751Z,-23784.90
2023-03-13T07:07:25.756Z,-23786.66
2023-03-13T07:09:57.831Z,-23788.68
2023-03-13T07:12:29.506Z,-23790.76
2023-03-13T07:14:57.723Z,-23792.20
2023-03-13T07:17:25.928Z,-23793.68
2023-03-13T07:19:56.531Z,-23795.07
2023-03-13T07:22:24.846Z,-23796.17
2023-03-13T07:24:56.183Z,-23798.06
2023-03-13T07:27:24.866Z,-23799.60
2023-03-13T07:29:53.122Z,-23801.81
2023-03-13T07:32:21.481Z,-23803.88
2023-03-13T07:34:49.830Z,-23805.77
2023-03-13T07:37:18.837Z,-23807.19
2023-03-13T07:39:47.140Z,-23808.26
2023-03-13T07:42:16.500Z,-23809.58
2023-03-13T07:44:45.560Z,-23810.11
2023-03-13T07:47:13.705Z,-23810.55
2023-03-13T07:49:44.319Z,-23811.94
2023-03-13T07:52:13.030Z,-23814.01
2023-03-13T07:54:42.915Z,-23816.18
2023-03-13T07:57:11.505Z,-23817.41
2023-03-13T07:59:39.731Z,-23818.67
2023-03-13T08:02:09.876Z,-23820.18
2023-03-13T08:04:38.368Z,-23822.16
2023-03-13T08:07:11.325Z,-23824.08
2023-03-13T08:09:41.580Z,-23826.13
2023-03-13T08:12:11.135Z,-23827.98
2023-03-13T08:14:48.570Z,-23830.21
2023-03-13T08:17:16.760Z,-23832.85
2023-03-13T08:19:46.012Z,-23834.99
2023-03-13T08:22:14.937Z,-23836.85
2023-03-13T08:24:43.234Z,-23839.14
2023-03-13T08:27:13.311Z,-23841.72
2023-03-13T08:29:41.661Z,-23843.76
2023-03-13T08:32:11.758Z,-23845.37
2023-03-13T08:34:39.877Z,-23846.50
2023-03-13T08:37:08.258Z,-23848.26
2023-03-13T08:39:37.530Z,-23850.11
2023-03-13T08:42:06.851Z,-23851.25
2023-03-13T08:44:35.308Z,-23852.43
2023-03-13T08:47:06.282Z,-23853.54
2023-03-13T08:49:34.602Z,-23854.57
2023-03-13T08:52:05.624Z,-23855.89
2023-03-13T08:54:34.081Z,-23857.56
2023-03-13T08:57:02.409Z,-23859.75
2023-03-13T08:59:31.120Z,-23861.80
2023-03-13T09:02:03.413Z,-23863.09
2023-03-13T09:04:31.809Z,-23864.38
2023-03-13T09:07:00.111Z,-23866.07
2023-03-13T09:09:30.318Z,-23868.81
2023-03-13T09:11:58.611Z,-23871.41
2023-03-13T09:14:27.927Z,-23873.48
2023-03-13T09:16:56.621Z,-23874.86
2023-03-13T09:19:25.238Z,-23875.75
2023-03-13T09:21:59.353Z,-23876.09
2023-03-13T09:24:27.748Z,-23876.03
2023-03-13T09:27:01.451Z,-23876.96
2023-03-13T09:29:31.382Z,-23878.07
2023-03-13T09:31:59.817Z,-23879.07
2023-03-13T09:34:28.439Z,-23879.89
2023-03-13T09:36:56.554Z,-23880.76
2023-03-13T09:39:27.497Z,-23881.61
2023-03-13T09:42:35.108Z,-23882.37
2023-03-13T09:45:07.015Z,-23883.46
2023-03-13T09:47:46.740Z,-23884.69
2023-03-13T09:50:31.669Z,-23886.10
2023-03-13T09:53:06.753Z,-23887.77
2023-03-13T09:55:35.468Z,-23887.61
2023-03-13T09:58:16.640Z,-23887.27
2023-03-13T10:00:48.415Z,-23887.52
2023-03-13T10:03:23.473Z,-23887.07
2023-03-13T10:05:54.414Z,-23887.39
2023-03-13T10:08:36.013Z,-23887.48
2023-03-13T10:11:04.847Z,-23887.77
2023-03-13T10:13:33.414Z,-23888.74
2023-03-13T10:16:03.336Z,-23890.56
2023-03-13T10:18:31.873Z,-23892.85
2023-03-13T10:21:03.372Z,-23894.79
2023-03-13T10:23:46.895Z,-23896.93
2023-03-13T10:26:21.765Z,-23898.94
2023-03-13T10:28:50.909Z,-23900.16
2023-03-13T10:31:36.699Z,-23901.25
2023-03-13T10:34:09.847Z,-23902.64
2023-03-13T10:36:49.824Z,-23904.58
2023-03-13T10:39:25.194Z,-23907.15
2023-03-13T10:42:09.171Z,-23908.31
2023-03-13T10:44:37.475Z,-23908.00
2023-03-13T10:47:06.126Z,-23908.28
2023-03-13T10:49:34.700Z,-23908.22
2023-03-13T10:52:04.912Z,-23908.66
2023-03-13T10:54:37.537Z,-23908.79
2023-03-13T10:57:26.198Z,-23908.75
2023-03-13T10:59:54.516Z,-23908.85
2023-03-13T11:02:34.074Z,-23908.38
2023-03-13T11:05:38.117Z,-23907.97
2023-03-13T11:08:35.892Z,-23907.97
2023-03-13T11:11:06.090Z,-23908.41
2023-03-13T11:13:41.222Z,-23909.10
2023-03-13T11:16:29.488Z,-23910.29
2023-03-13T11:19:08.043Z,-23912.08
2023-03-13T11:21:45.658Z,-23913.24
2023-03-13T11:24:18.970Z,-23913.62
2023-03-13T11:27:04.650Z,-23914.11
2023-03-13T11:30:12.835Z,-23915.43
2023-03-13T11:32:52.317Z,-23916.31
2023-03-13T11:35:34.606Z,-23918.10
2023-03-13T11:38:20.241Z,-23920.48
2023-03-13T11:41:11.730Z,-23923.34
2023-03-13T11:43:45.458Z,-23925.88
2023-03-13T11:46:28.923Z,-23927.73
2023-03-13T11:49:28.980Z,-23929.79
2023-03-13T11:52:14.261Z,-23932.64
2023-03-13T11:55:24.314Z,-23935.21
2023-03-13T11:58:21.459Z,-23937.35
2023-03-13T12:01:03.068Z,-23940.13
2023-03-13T12:03:55.272Z,-23942.36
2023-03-13T12:06:31.668Z,-23944.74
2023-03-13T12:09:08.359Z,-23946.37
2023-03-13T12:11:43.879Z,-23947.96
2023-03-13T12:14:22.588Z,-23948.75
2023-03-13T12:16:57.255Z,-23948.75
2023-03-13T12:19:48.750Z,-23948.53
2023-03-13T12:22:34.302Z,-23948.37
2023-03-13T12:25:40.108Z,-23948.62
2023-03-13T12:28:29.416Z,-23948.53
2023-03-13T12:31:19.266Z,-23948.96
2023-03-13T12:34:12.104Z,-23949.97
2023-03-13T12:36:53.152Z,-23950.75
2023-03-13T12:39:21.361Z,-23951.97
2023-03-13T12:42:20.378Z,-23952.91
2023-03-13T12:44:49.399Z,-23953.73
2023-03-13T12:47:55.321Z,-23954.29
2023-03-13T12:50:30.123Z,-23955.29
2023-03-13T12:53:10.402Z,-23955.70
2023-03-13T12:56:10.867Z,-23956.95
2023-03-13T12:58:55.697Z,-23958.52
2023-03-13T13:01:44.603Z,-23959.23
2023-03-13T13:04:13.747Z,-23959.61
2023-03-13T13:06:51.821Z,-23960.02
2023-03-13T13:09:25.738Z,-23960.61
2023-03-13T13:12:01.171Z,-23961.11
2023-03-13T13:14:29.405Z,-23961.43
2023-03-13T13:17:11.713Z,-23961.74
2023-03-13T13:19:40.162Z,-23961.83
2023-03-13T13:22:39.695Z,-23961.80
2023-03-13T13:25:08.388Z,-23962.43
2023-03-13T13:27:36.557Z,-23962.90
2023-03-13T13:30:25.982Z,-23963.56
2023-03-13T13:33:18.924Z,-23963.43
2023-03-13T13:35:48.195Z,-23962.74
2023-03-13T13:38:19.573Z,-23962.62
2023-03-13T13:41:09.069Z,-23962.71
2023-03-13T13:43:45.502Z,-23962.68
2023-03-13T13:46:24.812Z,-23962.62
2023-03-13T13:49:07.903Z,-23962.90
2023-03-13T13:51:38.042Z,-23963.24
2023-03-13T13:54:12.943Z,-23963.62
2023-03-13T13:56:47.309Z,-23964.28
2023-03-13T13:59:21.349Z,-23965.03
2023-03-13T14:02:07.845Z,-23965.50
2023-03-13T14:04:39.378Z,-23966.22
2023-03-13T14:07:07.910Z,-23966.69
2023-03-13T14:10:05.488Z,-23966.87
2023-03-13T14:12:38.497Z,-23966.84
2023-03-13T14:15:17.296Z,-23966.75
2023-03-13T14:17:55.259Z,-23966.53
2023-03-13T14:20:32.677Z,-23966.53
2023-03-13T14:23:08.077Z,-23966.75
2023-03-13T14:25:50.112Z,-23966.59
2023-03-13T14:28:27.904Z,-23966.44
2023-03-13T14:30:57.109Z,-23966.06
2023-03-13T14:33:27.040Z,-23965.71
2023-03-13T14:35:57.927Z,-23965.46
2023-03-13T14:38:30.122Z,-23965.12
2023-03-13T14:40:58.263Z,-23964.87
2023-03-13T14:43:37.115Z,-23964.84
2023-03-13T14:46:26.794Z,-23964.93
2023-03-13T14:48:56.146Z,-23964.90
2023-03-13T14:51:26.059Z,-23965.00
2023-03-13T14:53:56.634Z,-23964.90
2023-03-13T14:56:38.109Z,-23965.03
2023-03-13T14:59:16.611Z,-23965.00
2023-03-13T15:01:45.900Z,-23964.90
2023-03-13T15:04:14.160Z,-23964.68
2023-03-13T15:06:44.216Z,-23964.81
2023-03-13T15:09:22.699Z,-23964.75
2023-03-13T15:11:56.694Z,-23964.56
2023-03-13T15:14:33.980Z,-23964.12
2023-03-13T15:17:16.220Z,-23964.03
2023-03-13T15:19:48.485Z,-23963.87
2023-03-13T15:22:16.996Z,-23963.49
2023-03-13T15:24:56.114Z,-23963.15
2023-03-13T15:27:33.758Z,-23962.87
2023-03-13T15:30:02.002Z,-23962.55
2023-03-13T15:32:33.213Z,-23961.93
2023-03-13T15:35:02.249Z,-23961.62
2023-03-13T15:37:30.926Z,-23961.11
2023-03-13T15:39:59.355Z,-23960.89
2023-03-13T15:42:33.353Z,-23960.96
2023-03-13T15:45:01.700Z,-23960.77
2023-03-13T15:47:30.651Z,-23960.70
2023-03-13T15:49:59.087Z,-23960.43
2023-03-13T15:52:28.496Z,-23960.27
2023-03-13T15:54:59.380Z,-23960.11
2023-03-13T15:57:27.910Z,-23959.83
2023-03-13T15:59:56.031Z,-23959.58
2023-03-13T16:02:24.305Z,-23959.33
2023-03-13T16:04:52.778Z,-23959.36
2023-03-13T16:07:21.306Z,-23959.27
2023-03-13T16:09:50.713Z,-23959.36
2023-03-13T16:12:22.606Z,-23959.14
2023-03-13T16:14:56.539Z,-23959.08
2023-03-13T16:17:28.295Z,-23959.05
2023-03-13T16:20:10.701Z,-23958.92
2023-03-13T16:22:38.958Z,-23958.86
2023-03-13T16:25:07.777Z,-23958.80
2023-03-13T16:27:36.296Z,-23958.98
2023-03-13T16:30:07.233Z,-23959.08
2023-03-13T16:32:41.500Z,-23959.17
2023-03-13T16:35:10.165Z,-23959.24
2023-03-13T16:37:38.449Z,-23959.05
2023-03-13T16:40:19.047Z,-23958.95
2023-03-13T16:42:47.204Z,-23958.86
2023-03-13T16:45:15.991Z,-23958.95
2023-03-13T16:47:45.678Z,-23958.83
2023-03-13T16:50:34.173Z,-23958.70
2023-03-13T16:53:02.500Z,-23958.86
2023-03-13T16:55:36.460Z,-23959.11
2023-03-13T16:58:05.097Z,-23959.14
2023-03-13T17:00:33.686Z,-23959.02
2023-03-13T17:03:01.867Z,-23958.86
2023-03-13T17:05:30.529Z,-23958.70
2023-03-13T17:07:58.657Z,-23958.70
2023-03-13T17:10:28.524Z,-23958.70
2023-03-13T17:12:56.694Z,-23958.70
2023-03-13T17:15:26.402Z,-23958.61
2023-03-13T17:17:56.156Z,-23958.61
2023-03-13T17:20:26.982Z,-23958.61
2023-03-13T17:22:58.244Z,-23958.61
2023-03-13T17:25:26.542Z,-23958.55
2023-03-13T17:27:56.270Z,-23958.45
2023-03-13T17:30:30.266Z,-23958.23
2023-03-13T17:32:59.253Z,-23958.02
2023-03-13T17:35:27.816Z,-23958.02
2023-03-13T17:37:56.133Z,-23957.98
2023-03-13T17:40:28.185Z,-23957.48
2023-03-13T17:42:57.422Z,-23956.48
2023-03-13T17:45:25.721Z,-23955.42
2023-03-13T17:47:54.626Z,-23954.38
2023-03-13T17:50:27.410Z,-23953.01
2023-03-13T17:52:59.052Z,-23951.50
2023-03-13T17:55:27.316Z,-23950.22
2023-03-13T17:57:55.657Z,-23949.15
2023-03-13T18:00:25.977Z,-23948.06
2023-03-13T18:02:54.405Z,-23946.84
2023-03-13T18:05:23.194Z,-23945.80
2023-03-13T18:07:54.702Z,-23944.80
2023-03-13T18:10:27.793Z,-23943.89
2023-03-13T18:12:59.731Z,-23942.67
2023-03-13T18:15:28.259Z,-23941.48
2023-03-13T18:18:03.341Z,-23940.20
2023-03-13T18:20:32.546Z,-23939.19
2023-03-13T18:23:01.277Z,-23938.47
2023-03-13T18:25:32.398Z,-23937.59
2023-03-13T18:28:01.414Z,-23937.06
2023-03-13T18:30:29.843Z,-23936.50
2023-03-13T18:32:58.051Z,-23935.87
2023-03-13T18:35:26.575Z,-23935.46
2023-03-13T18:37:56.312Z,-23935.03
2023-03-13T18:40:26.674Z,-23934.56
2023-03-13T18:42:58.713Z,-23934.09
2023-03-13T18:45:28.376Z,-23933.55
2023-03-13T18:47:56.507Z,-23933.37
2023-03-13T18:50:30.073Z,-23932.99
2023-03-13T18:52:59.626Z,-23932.46
2023-03-13T18:55:28.972Z,-23931.93
2023-03-13T18:57:57.461Z,-23931.21
2023-03-13T19:00:27.509Z,-23930.39
2023-03-13T19:02:55.791Z,-23929.29
2023-03-13T19:05:24.257Z,-23928.29
2023-03-13T19:07:53.028Z,-23926.66
2023-03-13T19:10:24.385Z,-23925.31
2023-03-13T19:12:58.213Z,-23924.34
2023-03-13T19:15:28.215Z,-23923.06
2023-03-13T19:17:57.493Z,-23921.90
2023-03-13T19:20:25.627Z,-23920.70
2023-03-13T19:22:55.947Z,-23919.82
2023-03-13T19:25:24.728Z,-23918.82
2023-03-13T19:27:53.183Z,-23918.00
2023-03-13T19:30:22.833Z,-23917.22
2023-03-13T19:34:19.687Z,-23916.63
2023-03-13T19:36:48.834Z,-23914.86
2023-03-13T19:39:24.011Z,-23913.64
2023-03-13T19:41:52.934Z,-23912.30
2023-03-13T19:44:22.496Z,-23910.98
2023-03-13T19:46:52.013Z,-23909.85
2023-03-13T19:49:20.909Z,-23908.85
2023-03-13T19:51:49.945Z,-23907.84
2023-03-13T19:54:18.698Z,-23907.19
2023-03-13T19:56:48.891Z,-23906.40
2023-03-13T19:59:21.201Z,-23905.74
2023-03-13T20:01:49.520Z,-23904.89
2023-03-13T20:04:17.749Z,-23904.05
2023-03-13T20:06:46.129Z,-23903.33
2023-03-13T20:09:18.434Z,-23902.51
2023-03-13T20:11:46.681Z,-23901.63
2023-03-13T20:14:17.006Z,-23900.63
2023-03-13T20:16:49.014Z,-23899.88
2023-03-13T20:19:17.582Z,-23899.47
2023-03-13T20:21:46.728Z,-23898.68
2023-03-13T20:24:15.027Z,-23897.71
2023-03-13T20:26:43.173Z,-23897.37
2023-03-13T20:29:11.335Z,-23897.02
2023-03-13T20:31:40.001Z,-23896.64
2023-03-13T20:34:09.953Z,-23896.14
2023-03-13T20:36:39.075Z,-23895.93
2023-03-13T20:39:08.269Z,-23895.86
2023-03-13T20:41:37.705Z,-23895.36
2023-03-13T20:44:06.026Z,-23895.07
2023-03-13T20:46:35.354Z,-23895.07
2023-03-13T20:49:03.959Z,-23894.98
2023-03-13T20:51:37.995Z,-23894.70
2023-03-13T20:54:06.485Z,-23894.45
2023-03-13T20:56:34.652Z,-23894.20
2023-03-13T20:59:03.774Z,-23893.88
2023-03-13T21:01:32.493Z,-23893.54
2023-03-13T21:04:00.706Z,-23893.63
2023-03-13T21:06:30.413Z,-23893.13
2023-03-13T21:09:02.631Z,-23892.60
2023-03-13T21:11:30.845Z,-23892.29
2023-03-13T21:13:59.420Z,-23892.03
2023-03-13T21:16:33.123Z,-23891.47
2023-03-13T21:19:01.480Z,-23891.06
2023-03-13T21:21:29.992Z,-23890.53
2023-03-13T21:24:03.509Z,-23890.34
2023-03-13T21:26:32.596Z,-23889.87
2023-03-13T21:29:00.799Z,-23889.71
2023-03-13T21:31:29.913Z,-23889.30
2023-03-13T21:33:58.450Z,-23888.83
2023-03-13T21:36:26.864Z,-23888.58
2023-03-13T21:38:55.436Z,-23888.58
2023-03-13T21:41:24.504Z,-23888.45
2023-03-13T21:43:53.135Z,-23888.67
2023-03-13T21:46:22.769Z,-23888.93
2023-03-13T21:48:52.700Z,-23889.05
2023-03-13T21:51:21.003Z,-23889.18
2023-03-13T21:53:49.662Z,-23889.55
2023-03-13T21:56:18.396Z,-23889.62
2023-03-13T21:58:46.483Z,-23889.74
2023-03-13T22:01:14.861Z,-23889.77
2023-03-13T22:03:43.186Z,-23889.71
2023-03-13T22:06:15.276Z,-23889.74
2023-03-13T22:08:48.740Z,-23889.68
2023-03-13T22:11:21.742Z,-23889.74
2023-03-13T22:13:51.649Z,-23889.65
2023-03-13T22:16:21.185Z,-23889.71
2023-03-13T22:18:51.648Z,-23889.74
2023-03-13T22:21:20.301Z,-23889.55
2023-03-13T22:23:48.476Z,-23889.87
2023-03-13T22:26:16.938Z,-23889.71
2023-03-13T22:28:45.576Z,-23889.59
2023-03-13T22:31:15.745Z,-23889.49
2023-03-13T22:33:43.903Z,-23889.14
2023-03-13T22:36:12.867Z,-23888.83
2023-03-13T22:38:43.373Z,-23888.80
2023-03-13T22:41:13.080Z,-23888.67
2023-03-13T22:43:41.303Z,-23888.55
2023-03-13T22:46:10.976Z,-23888.45
2023-03-13T22:48:39.148Z,-23888.36
2023-03-13T22:51:09.150Z,-23888.48
2023-03-13T22:53:38.618Z,-23888.45
2023-03-13T22:56:07.519Z,-23888.48
2023-03-13T22:58:36.505Z,-23888.61
2023-03-13T23:01:17.424Z,-23888.61
2023-03-13T23:03:46.995Z,-23888.33
2023-03-13T23:06:16.993Z,-23888.11
2023-03-13T23:08:46.005Z,-23888.02
2023-03-13T23:11:14.701Z,-23888.08
2023-03-13T23:13:46.640Z,-23887.92
2023-03-13T23:16:16.531Z,-23887.73
2023-03-13T23:18:45.231Z,-23887.42
2023-03-13T23:21:16.441Z,-23887.33
2023-03-13T23:23:45.199Z,-23887.14
2023-03-13T23:26:14.513Z,-23886.76
2023-03-13T23:28:43.527Z,-23886.32
2023-03-13T23:31:16.168Z,-23885.95
2023-03-13T23:33:47.984Z,-23885.41
2023-03-13T23:36:17.698Z,-23884.78
2023-03-13T23:38:48.922Z,-23884.47
2023-03-13T23:41:17.032Z,-23884.03
2023-03-13T23:43:45.173Z,-23884.09
2023-03-13T23:46:22.464Z,-23883.87
2023-03-13T23:48:57.168Z,-23883.65
2023-03-13T23:51:25.471Z,-23883.53
2023-03-13T23:53:53.765Z,-23883.06
2023-03-13T23:56:22.191Z,-23882.96
2023-03-13T23:58:55.707Z,-23882.93
